createdAt,value
2023-05-06T00:00:55.839Z,4.78
2023-05-06T00:03:22.305Z,4.78
2023-05-06T00:05:49.601Z,4.75
2023-05-06T00:08:16.128Z,4.85
2023-05-06T00:10:42.562Z,4.43
2023-05-06T00:13:09.200Z,4.90
2023-05-06T00:15:35.633Z,4.57
2023-05-06T00:18:02.155Z,4.40
2023-05-06T00:20:28.800Z,4.50
2023-05-06T00:22:55.474Z,4.28
2023-05-06T00:25:21.835Z,4.20
2023-05-06T00:27:48.251Z,4.55
2023-05-06T00:30:14.649Z,4.55
2023-05-06T00:32:41.093Z,4.60
2023-05-06T00:35:08.018Z,5.03
2023-05-06T00:37:34.576Z,4.90
2023-05-06T00:40:00.970Z,5.22
2023-05-06T00:42:27.284Z,5.20
2023-05-06T00:44:53.658Z,4.97
2023-05-06T00:47:20.954Z,5.20
2023-05-06T00:49:47.745Z,5.28
2023-05-06T00:52:14.588Z,5.53
2023-05-06T00:54:41.345Z,5.35
2023-05-06T00:57:07.844Z,5.18
2023-05-06T00:59:34.225Z,5.18
2023-05-06T01:02:00.982Z,4.68
2023-05-06T01:04:29.065Z,5.40
2023-05-06T01:07:04.384Z,5.38
2023-05-06T01:09:34.929Z,5.03
2023-05-06T01:12:22.012Z,5.03
2023-05-06T01:15:08.647Z,4.85
2023-05-06T01:17:42.332Z,5.47
2023-05-06T01:20:11.723Z,5.05
2023-05-06T01:22:38.632Z,5.38
2023-05-06T01:25:05.587Z,5.35
2023-05-06T01:27:32.005Z,4.65
2023-05-06T01:29:59.281Z,4.85
2023-05-06T01:32:31.533Z,4.78
2023-05-06T01:35:06.141Z,5.00
2023-05-06T01:37:38.517Z,4.63
2023-05-06T01:40:05.914Z,4.55
2023-05-06T01:42:33.838Z,5.50
2023-05-06T01:45:02.105Z,5.10
2023-05-06T01:47:28.511Z,4.68
2023-05-06T01:49:54.894Z,4.40
2023-05-06T01:52:21.657Z,4.38
2023-05-06T01:54:48.061Z,4.00
2023-05-06T01:57:14.444Z,4.07
2023-05-06T01:59:41.144Z,4.25
2023-05-06T02:02:08.154Z,3.67
2023-05-06T02:04:34.562Z,3.88
2023-05-06T02:07:00.994Z,4.30
2023-05-06T02:09:27.512Z,3.83
2023-05-06T02:11:53.946Z,4.10
2023-05-06T02:14:20.275Z,4.28
2023-05-06T02:16:46.564Z,3.75
2023-05-06T02:19:12.862Z,4.03
2023-05-06T02:21:39.203Z,3.95
2023-05-06T02:24:05.991Z,4.15
2023-05-06T02:26:32.453Z,3.80
2023-05-06T02:28:58.887Z,3.92
2023-05-06T02:31:25.328Z,4.35
2023-05-06T02:33:51.677Z,4.90
2023-05-06T02:36:18.022Z,4.28
2023-05-06T02:38:44.592Z,4.25
2023-05-06T02:41:10.988Z,4.13
2023-05-06T02:43:37.416Z,4.47
2023-05-06T02:46:03.812Z,3.90
2023-05-06T02:48:30.250Z,4.20
2023-05-06T02:50:56.614Z,3.95
2023-05-06T02:53:22.999Z,4.93
2023-05-06T02:55:49.340Z,4.85
2023-05-06T02:58:15.690Z,5.10
2023-05-06T03:00:42.070Z,5.40
2023-05-06T03:03:08.854Z,5.18
2023-05-06T03:05:35.358Z,5.65
2023-05-06T03:08:02.436Z,5.28
2023-05-06T03:10:28.786Z,4.85
2023-05-06T03:12:55.204Z,4.80
2023-05-06T03:15:21.663Z,4.97
2023-05-06T03:17:48.121Z,4.50
2023-05-06T03:20:14.523Z,4.30
2023-05-06T03:22:42.197Z,4.65
2023-05-06T03:25:09.099Z,4.40
2023-05-06T03:27:35.650Z,4.60
2023-05-06T03:30:02.387Z,4.63
2023-05-06T03:32:28.766Z,4.53
2023-05-06T03:34:55.269Z,4.85
2023-05-06T03:37:21.797Z,5.50
2023-05-06T03:39:48.245Z,5.03
2023-05-06T03:42:14.663Z,5.03
2023-05-06T03:44:40.957Z,5.00
2023-05-06T03:47:07.275Z,5.32
2023-05-06T03:49:33.668Z,5.70
2023-05-06T03:52:00.250Z,5.70
2023-05-06T03:54:26.612Z,5.72
2023-05-06T03:56:53.054Z,5.57
2023-05-06T03:59:19.364Z,5.15
2023-05-06T04:01:45.838Z,5.82
2023-05-06T04:04:12.315Z,5.50
2023-05-06T04:06:38.800Z,5.70
2023-05-06T04:09:06.314Z,5.53
2023-05-06T04:11:32.829Z,5.65
2023-05-06T04:14:19.111Z,5.80
2023-05-06T04:16:45.582Z,6.47
2023-05-06T04:19:12.142Z,6.82
2023-05-06T04:21:38.738Z,6.38
2023-05-06T04:24:05.242Z,5.95
2023-05-06T04:26:32.178Z,5.70
2023-05-06T04:28:58.766Z,6.38
2023-05-06T04:31:25.432Z,5.50
2023-05-06T04:33:53.541Z,6.00
2023-05-06T04:36:20.025Z,7.72
2023-05-06T04:38:47.515Z,7.88
2023-05-06T04:41:13.948Z,8.25
2023-05-06T04:43:40.264Z,7.68
2023-05-06T04:46:06.826Z,6.65
2023-05-06T04:48:33.248Z,6.45
2023-05-06T04:50:59.597Z,5.75
2023-05-06T04:53:26.020Z,5.82
2023-05-06T04:55:52.362Z,5.50
2023-05-06T04:58:19.492Z,5.40
2023-05-06T05:00:45.911Z,5.50
2023-05-06T05:03:12.466Z,5.72
2023-05-06T05:05:38.952Z,5.80
2023-05-06T05:08:05.565Z,5.30
2023-05-06T05:10:31.858Z,5.38
2023-05-06T05:12:58.279Z,6.30
2023-05-06T05:15:24.715Z,6.18
2023-05-06T05:17:51.226Z,6.15
2023-05-06T05:20:17.840Z,5.78
2023-05-06T05:22:44.292Z,5.72
2023-05-06T05:25:10.695Z,5.82
2023-05-06T05:27:37.367Z,5.82
2023-05-06T05:30:03.871Z,5.60
2023-05-06T05:32:30.378Z,5.20
2023-05-06T05:34:57.213Z,5.32
2023-05-06T05:37:23.581Z,5.60
2023-05-06T05:39:49.934Z,4.65
2023-05-06T05:42:16.918Z,4.80
2023-05-06T05:44:43.313Z,4.53
2023-05-06T05:47:09.625Z,4.50
2023-05-06T05:49:36.151Z,5.20
2023-05-06T05:52:02.591Z,4.90
2023-05-06T05:54:28.982Z,4.57
2023-05-06T05:56:55.335Z,4.88
2023-05-06T05:59:21.684Z,5.43
2023-05-06T06:01:48.081Z,4.95
2023-05-06T06:04:14.455Z,5.13
2023-05-06T06:06:40.914Z,4.22
2023-05-06T06:09:07.439Z,4.68
2023-05-06T06:11:33.851Z,12.85
2023-05-06T06:14:00.530Z,6.82
2023-05-06T06:16:26.955Z,4.93
2023-05-06T06:18:53.488Z,4.30
2023-05-06T06:21:22.606Z,4.07
2023-05-06T06:23:52.151Z,4.80
2023-05-06T06:26:22.982Z,4.65
2023-05-06T06:28:53.388Z,3.80
2023-05-06T06:31:23.580Z,4.10
2023-05-06T06:33:53.812Z,3.78
2023-05-06T06:36:23.781Z,3.47
2023-05-06T06:38:51.282Z,3.53
2023-05-06T06:41:17.646Z,3.85
2023-05-06T06:43:44.109Z,4.00
2023-05-06T06:46:10.911Z,3.80
2023-05-06T06:48:37.256Z,4.00
2023-05-06T06:51:03.728Z,3.85
2023-05-06T06:53:30.171Z,4.20
2023-05-06T06:55:56.625Z,4.00
2023-05-06T06:58:22.950Z,3.78
2023-05-06T07:00:49.439Z,3.67
2023-05-06T07:03:19.263Z,3.80
2023-05-06T07:05:46.050Z,3.95
2023-05-06T07:08:12.543Z,4.13
2023-05-06T07:10:38.929Z,4.00
2023-05-06T07:13:05.395Z,4.63
2023-05-06T07:15:32.027Z,3.60
2023-05-06T07:17:58.497Z,3.60
2023-05-06T07:20:24.945Z,3.60
2023-05-06T07:22:51.428Z,3.08
2023-05-06T07:25:17.849Z,3.35
2023-05-06T07:27:44.201Z,3.30
2023-05-06T07:30:11.169Z,3.78
2023-05-06T07:32:37.663Z,3.28
2023-05-06T07:35:04.392Z,3.40
2023-05-06T07:37:30.867Z,3.50
2023-05-06T07:39:57.816Z,3.20
2023-05-06T07:42:24.144Z,3.00
2023-05-06T07:44:50.510Z,3.35
2023-05-06T07:47:25.381Z,3.60
2023-05-06T07:49:51.763Z,3.80
2023-05-06T07:52:18.093Z,3.83
2023-05-06T07:54:44.441Z,3.30
2023-05-06T07:57:10.798Z,3.30
2023-05-06T07:59:37.196Z,3.00
2023-05-06T08:02:03.679Z,3.40
2023-05-06T08:04:30.173Z,3.13
2023-05-06T08:06:57.272Z,4.40
2023-05-06T08:09:23.664Z,3.17
2023-05-06T08:11:50.620Z,3.00
2023-05-06T08:14:17.084Z,3.35
2023-05-06T08:16:43.695Z,3.65
2023-05-06T08:19:10.228Z,3.58
2023-05-06T08:21:36.610Z,3.50
2023-05-06T08:24:03.007Z,3.60
2023-05-06T08:26:29.362Z,3.30
2023-05-06T08:28:57.187Z,2.90
2023-05-06T08:31:23.711Z,3.20
2023-05-06T08:33:51.521Z,3.28
2023-05-06T08:36:18.829Z,3.13
2023-05-06T08:38:50.486Z,3.15
2023-05-06T08:41:18.048Z,3.08
2023-05-06T08:43:46.082Z,2.85
2023-05-06T08:46:13.070Z,3.20
2023-05-06T08:48:39.493Z,3.17
2023-05-06T08:51:06.929Z,2.75
2023-05-06T08:53:33.722Z,2.80
2023-05-06T08:56:06.783Z,2.70
2023-05-06T08:58:34.523Z,2.80
2023-05-06T09:01:01.531Z,2.75
2023-05-06T09:03:28.177Z,2.70
2023-05-06T09:05:54.756Z,2.45
2023-05-06T09:08:21.370Z,2.78
2023-05-06T09:10:47.721Z,3.38
2023-05-06T09:13:18.115Z,2.92
2023-05-06T09:15:47.200Z,2.78
2023-05-06T09:18:13.990Z,3.13
2023-05-06T09:20:41.595Z,2.80
2023-05-06T09:23:09.425Z,3.03
2023-05-06T09:25:36.547Z,3.20
2023-05-06T09:28:03.692Z,3.25
2023-05-06T09:30:30.129Z,3.53
2023-05-06T09:32:56.868Z,3.20
2023-05-06T09:35:34.926Z,3.50
2023-05-06T09:38:01.220Z,3.40
2023-05-06T09:40:29.618Z,2.92
2023-05-06T09:42:56.309Z,3.25
2023-05-06T09:45:24.227Z,3.40
2023-05-06T09:47:53.697Z,3.03
2023-05-06T09:50:23.890Z,3.03
2023-05-06T09:52:50.692Z,2.80
2023-05-06T09:55:20.744Z,3.30
2023-05-06T09:57:47.843Z,3.08
2023-05-06T10:00:14.538Z,2.60
2023-05-06T10:02:41.594Z,3.20
2023-05-06T10:05:12.457Z,2.88
2023-05-06T10:07:40.233Z,2.80
2023-05-06T10:10:11.009Z,2.75
2023-05-06T10:12:37.479Z,2.80
2023-05-06T10:15:04.473Z,3.45
2023-05-06T10:17:31.725Z,2.90
2023-05-06T10:19:59.039Z,3.30
2023-05-06T10:22:31.417Z,3.13
2023-05-06T10:25:10.857Z,3.30
2023-05-06T10:27:39.639Z,3.05
2023-05-06T10:30:07.350Z,3.85
2023-05-06T10:32:33.886Z,3.28
2023-05-06T10:35:05.679Z,3.03
2023-05-06T10:37:33.706Z,3.40
2023-05-06T10:40:00.371Z,3.05
2023-05-06T10:42:28.401Z,3.25
2023-05-06T10:45:04.514Z,2.78
2023-05-06T10:47:49.577Z,3.03
2023-05-06T10:50:19.958Z,3.10
2023-05-06T10:52:46.915Z,2.80
2023-05-06T10:55:25.233Z,2.67
2023-05-06T10:57:54.900Z,2.83
2023-05-06T11:00:21.810Z,2.80
2023-05-06T11:02:54.998Z,2.80
2023-05-06T11:05:21.944Z,3.15
2023-05-06T11:07:50.090Z,2.90
2023-05-06T11:10:30.858Z,3.28
2023-05-06T11:12:57.315Z,2.97
2023-05-06T11:15:40.211Z,3.15
2023-05-06T11:18:38.803Z,2.60
2023-05-06T11:21:07.952Z,3.03
2023-05-06T11:23:43.344Z,3.00
2023-05-06T11:26:10.489Z,3.10
2023-05-06T11:28:37.487Z,2.80
2023-05-06T11:31:04.022Z,2.40
2023-05-06T11:33:34.175Z,2.70
2023-05-06T11:36:00.976Z,3.30
2023-05-06T11:38:40.224Z,3.05
2023-05-06T11:41:07.352Z,3.35
2023-05-06T11:43:33.713Z,3.90
2023-05-06T11:46:00.307Z,2.85
2023-05-06T11:48:26.767Z,2.97
2023-05-06T11:50:54.135Z,3.60
2023-05-06T11:53:21.613Z,3.28
2023-05-06T11:55:48.389Z,3.22
2023-05-06T11:58:18.905Z,3.30
2023-05-06T12:00:51.740Z,3.10
2023-05-06T12:03:19.322Z,3.20
2023-05-06T12:05:47.830Z,2.67
2023-05-06T12:08:26.239Z,2.90
2023-05-06T12:10:54.966Z,3.15
2023-05-06T12:13:21.823Z,2.75
2023-05-06T12:15:49.737Z,3.28
2023-05-06T12:18:16.378Z,3.35
2023-05-06T12:20:42.822Z,2.17
2023-05-06T12:23:10.477Z,2.60
2023-05-06T12:25:37.181Z,2.65
2023-05-06T12:28:16.228Z,2.40
2023-05-06T12:30:42.701Z,2.58
2023-05-06T12:33:09.707Z,2.60
2023-05-06T12:35:36.103Z,2.45
2023-05-06T12:38:13.201Z,2.42
2023-05-06T12:40:40.750Z,2.35
2023-05-06T12:43:07.252Z,2.20
2023-05-06T12:45:33.838Z,2.35
2023-05-06T12:48:05.147Z,2.30
2023-05-06T12:50:31.838Z,2.33
2023-05-06T12:52:58.256Z,1.90
2023-05-06T12:55:25.998Z,1.95
2023-05-06T12:57:52.541Z,2.50
2023-05-06T13:00:19.424Z,2.20
2023-05-06T13:02:46.276Z,2.53
2023-05-06T13:05:12.720Z,2.20
2023-05-06T13:07:39.019Z,2.50
2023-05-06T13:10:06.372Z,2.50
2023-05-06T13:12:33.172Z,2.28
2023-05-06T13:14:59.895Z,2.20
2023-05-06T13:17:26.563Z,2.15
2023-05-06T13:19:53.247Z,2.22
2023-05-06T13:22:19.987Z,2.15
2023-05-06T13:24:46.685Z,2.13
2023-05-06T13:27:13.022Z,4.60
2023-05-06T13:29:39.427Z,2.42
2023-05-06T13:32:07.938Z,2.10
2023-05-06T13:34:35.239Z,2.22
2023-05-06T13:37:01.652Z,2.30
2023-05-06T13:39:28.068Z,2.10
2023-05-06T13:41:54.575Z,2.20
2023-05-06T13:44:21.387Z,1.95
2023-05-06T13:46:48.448Z,2.13
2023-05-06T13:49:14.888Z,2.13
2023-05-06T13:51:41.293Z,2.28
2023-05-06T13:54:07.705Z,2.30
2023-05-06T13:56:34.393Z,2.30
2023-05-06T13:59:00.857Z,2.17
2023-05-06T14:01:27.288Z,2.30
2023-05-06T14:03:53.650Z,1.70
2023-05-06T14:06:20.328Z,2.20
2023-05-06T14:08:46.826Z,2.08
2023-05-06T14:11:13.285Z,2.50
2023-05-06T14:13:39.888Z,2.20
2023-05-06T14:16:06.461Z,2.03
2023-05-06T14:18:33.235Z,2.10
2023-05-06T14:20:59.605Z,2.05
2023-05-06T14:23:26.097Z,2.05
2023-05-06T14:25:52.437Z,2.50
2023-05-06T14:28:18.844Z,2.00
2023-05-06T14:30:45.252Z,2.20
2023-05-06T14:33:11.636Z,2.30
2023-05-06T14:35:42.232Z,2.25
2023-05-06T14:38:08.970Z,2.55
2023-05-06T14:40:36.806Z,2.17
2023-05-06T14:43:03.149Z,2.38
2023-05-06T14:45:31.050Z,2.58
2023-05-06T14:47:57.565Z,1.98
2023-05-06T14:50:23.993Z,2.30
2023-05-06T14:52:50.314Z,2.47
2023-05-06T14:55:17.264Z,2.10
2023-05-06T14:57:43.636Z,2.25
2023-05-06T15:00:10.422Z,2.42
2023-05-06T15:02:46.203Z,2.08
2023-05-06T15:05:13.807Z,2.05
2023-05-06T15:07:40.472Z,2.00
2023-05-06T15:10:07.016Z,2.30
2023-05-06T15:12:33.691Z,1.92
2023-05-06T15:15:00.064Z,2.03
2023-05-06T15:17:26.519Z,2.05
2023-05-06T15:19:53.013Z,2.15
2023-05-06T15:22:19.401Z,2.42
2023-05-06T15:24:45.786Z,2.40
2023-05-06T15:27:12.226Z,2.42
2023-05-06T15:29:39.338Z,2.20
2023-05-06T15:32:06.135Z,2.67
2023-05-06T15:34:32.638Z,2.67
2023-05-06T15:37:01.616Z,2.25
2023-05-06T15:39:28.316Z,2.55
2023-05-06T15:41:54.704Z,2.30
2023-05-06T15:44:21.332Z,2.67
2023-05-06T15:46:47.739Z,3.00
2023-05-06T15:49:45.537Z,2.47
2023-05-06T15:52:01.383Z,2.50
2023-05-06T15:54:28.549Z,3.17
2023-05-06T15:56:55.004Z,3.42
2023-05-06T15:59:21.361Z,3.03
2023-05-06T16:04:17.356Z,2.35
2023-05-06T16:06:43.884Z,3.30
2023-05-06T16:09:10.396Z,3.58
2023-05-06T16:11:36.779Z,2.70
2023-05-06T16:14:03.775Z,2.60
2023-05-06T16:16:30.280Z,2.80
2023-05-06T16:18:56.734Z,7.20
2023-05-06T16:21:23.151Z,3.00
2023-05-06T16:23:49.498Z,3.30
2023-05-06T16:26:16.848Z,3.03
2023-05-06T16:28:43.248Z,3.05
2023-05-06T16:31:09.750Z,2.67
2023-05-06T16:33:36.178Z,2.85
2023-05-06T16:36:02.896Z,3.03
2023-05-06T16:38:29.262Z,2.90
2023-05-06T16:40:55.658Z,3.20
2023-05-06T16:43:22.857Z,3.30
2023-05-06T16:45:49.337Z,2.95
2023-05-06T16:48:15.984Z,3.25
2023-05-06T16:50:42.336Z,3.13
2023-05-06T16:53:08.720Z,3.10
2023-05-06T16:55:35.201Z,3.28
2023-05-06T16:58:02.245Z,3.40
2023-05-06T17:00:28.684Z,3.45
2023-05-06T17:02:55.106Z,3.55
2023-05-06T17:05:22.203Z,3.70
2023-05-06T17:07:49.698Z,3.05
2023-05-06T17:10:16.680Z,3.05
2023-05-06T17:12:43.121Z,3.10
2023-05-06T17:15:09.763Z,3.35
2023-05-06T17:17:36.182Z,3.38
2023-05-06T17:20:02.641Z,3.00
2023-05-06T17:22:29.083Z,3.08
2023-05-06T17:24:55.748Z,3.05
2023-05-06T17:27:22.170Z,3.40
2023-05-06T17:29:48.592Z,3.00
2023-05-06T17:32:15.033Z,3.10
2023-05-06T17:34:41.365Z,3.42
2023-05-06T17:37:07.984Z,3.38
2023-05-06T17:39:34.450Z,3.40
2023-05-06T17:42:01.798Z,2.97
2023-05-06T17:44:28.311Z,2.53
2023-05-06T17:46:54.684Z,2.58
2023-05-06T17:49:21.073Z,2.30
2023-05-06T17:51:47.586Z,2.78
2023-05-06T17:54:14.030Z,2.85
2023-05-06T17:56:40.389Z,2.53
2023-05-06T17:59:07.445Z,2.83
2023-05-06T18:01:33.858Z,2.90
2023-05-06T18:04:00.436Z,2.60
2023-05-06T18:06:27.093Z,2.70
2023-05-06T18:08:53.429Z,2.83
2023-05-06T18:11:19.795Z,2.45
2023-05-06T18:13:46.295Z,2.63
2023-05-06T18:16:12.636Z,2.40
2023-05-06T18:18:39.115Z,2.25
2023-05-06T18:21:05.540Z,2.20
2023-05-06T18:23:32.068Z,2.30
2023-05-06T18:25:58.436Z,2.28
2023-05-06T18:28:24.819Z,2.17
2023-05-06T18:30:51.195Z,2.30
2023-05-06T18:33:17.767Z,2.80
2023-05-06T18:35:44.237Z,2.40
2023-05-06T18:38:11.766Z,2.25
2023-05-06T18:40:39.446Z,2.92
2023-05-06T18:43:07.987Z,2.13
2023-05-06T18:45:34.301Z,2.13
2023-05-06T18:48:00.818Z,2.25
2023-05-06T18:50:27.245Z,2.15
2023-05-06T18:52:54.975Z,2.25
2023-05-06T18:55:21.375Z,2.20
2023-05-06T18:57:47.771Z,2.20
2023-05-06T19:00:14.637Z,2.22
2023-05-06T19:02:41.128Z,2.30
2023-05-06T19:05:08.174Z,2.30
2023-05-06T19:07:34.904Z,2.25
2023-05-06T19:10:01.433Z,2.58
2023-05-06T19:12:27.771Z,2.30
2023-05-06T19:14:54.049Z,2.10
2023-05-06T19:17:20.381Z,2.20
2023-05-06T19:19:48.512Z,2.33
2023-05-06T19:22:15.815Z,2.45
2023-05-06T19:24:42.227Z,2.30
2023-05-06T19:27:08.660Z,2.63
2023-05-06T19:29:34.992Z,2.30
2023-05-06T19:32:02.360Z,2.42
2023-05-06T19:34:28.837Z,2.28
2023-05-06T19:36:55.633Z,2.13
2023-05-06T19:39:22.099Z,2.15
2023-05-06T19:41:48.547Z,2.50
2023-05-06T19:44:14.970Z,2.60
2023-05-06T19:46:41.497Z,2.33
2023-05-06T19:49:07.920Z,2.78
2023-05-06T19:51:34.563Z,2.20
2023-05-06T19:54:00.930Z,2.30
2023-05-06T19:56:27.283Z,2.00
2023-05-06T19:58:53.655Z,2.28
2023-05-06T20:01:22.450Z,2.22
2023-05-06T20:03:49.037Z,2.28
2023-05-06T20:06:15.562Z,2.58
2023-05-06T20:08:41.968Z,2.47
2023-05-06T20:11:08.331Z,2.42
2023-05-06T20:13:34.822Z,2.53
2023-05-06T20:16:01.907Z,2.22
2023-05-06T20:18:28.335Z,2.05
2023-05-06T20:20:54.702Z,2.05
2023-05-06T20:23:21.342Z,2.28
2023-05-06T20:25:47.753Z,2.53
2023-05-06T20:28:14.107Z,2.58
2023-05-06T20:30:40.532Z,2.40
2023-05-06T20:33:07.821Z,3.13
2023-05-06T20:35:38.292Z,3.22
2023-05-06T20:38:05.743Z,3.30
2023-05-06T20:40:33.336Z,2.17
2023-05-06T20:42:59.708Z,2.33
2023-05-06T20:45:26.150Z,5.88
2023-05-06T20:47:52.550Z,6.80
2023-05-06T20:50:18.928Z,2.35
2023-05-06T20:52:47.215Z,2.50
2023-05-06T20:55:14.689Z,2.55
2023-05-06T20:57:44.602Z,2.38
2023-05-06T21:00:11.530Z,2.50
2023-05-06T21:02:41.221Z,2.47
2023-05-06T21:05:09.005Z,2.80
2023-05-06T21:07:35.626Z,2.53
2023-05-06T21:10:03.208Z,2.60
2023-05-06T21:12:29.531Z,2.28
2023-05-06T21:14:56.011Z,2.25
2023-05-06T21:17:22.405Z,2.58
2023-05-06T21:19:48.865Z,2.45
2023-05-06T21:22:15.306Z,2.30
2023-05-06T21:24:41.626Z,2.20
2023-05-06T21:27:07.957Z,2.22
2023-05-06T21:29:34.333Z,2.33
2023-05-06T21:32:00.769Z,2.28
2023-05-06T21:34:27.240Z,2.72
2023-05-06T21:36:53.589Z,3.15
2023-05-06T21:39:19.942Z,2.50
2023-05-06T21:41:46.352Z,2.10
2023-05-06T21:44:12.709Z,2.20
2023-05-06T21:46:39.374Z,2.28
2023-05-06T21:49:05.738Z,2.45
2023-05-06T21:51:33.377Z,2.60
2023-05-06T21:53:59.790Z,2.65
2023-05-06T21:56:26.259Z,2.85
2023-05-06T21:58:53.093Z,2.63
2023-05-06T22:01:19.521Z,2.45
2023-05-06T22:03:46.278Z,2.22
2023-05-06T22:06:12.793Z,2.00
2023-05-06T22:08:39.618Z,2.60
2023-05-06T22:11:05.997Z,2.50
2023-05-06T22:13:32.506Z,2.50
2023-05-06T22:15:58.973Z,2.53
2023-05-06T22:18:27.790Z,2.50
2023-05-06T22:20:56.433Z,2.40
2023-05-06T22:23:23.901Z,2.33
2023-05-06T22:25:51.896Z,2.55
2023-05-06T22:28:18.757Z,2.38
2023-05-06T22:30:45.355Z,2.20
2023-05-06T22:33:12.009Z,2.78
2023-05-06T22:35:38.449Z,2.50
2023-05-06T22:38:04.804Z,2.58
2023-05-06T22:40:31.195Z,2.40
2023-05-06T22:42:57.584Z,2.60
2023-05-06T22:45:24.036Z,2.42
2023-05-06T22:47:50.385Z,2.58
2023-05-06T22:50:16.823Z,2.47
2023-05-06T22:52:43.406Z,2.75
2023-05-06T22:55:10.151Z,2.60
2023-05-06T22:57:37.050Z,2.50
2023-05-06T23:00:03.972Z,2.22
2023-05-06T23:02:30.740Z,2.35
2023-05-06T23:04:57.532Z,2.47
2023-05-06T23:07:24.106Z,3.00
2023-05-06T23:09:50.456Z,2.95
2023-05-06T23:12:16.986Z,2.53
2023-05-06T23:14:43.350Z,2.60
2023-05-06T23:17:09.917Z,2.70
2023-05-06T23:19:36.292Z,2.17
2023-05-06T23:22:02.656Z,2.50
2023-05-06T23:24:28.982Z,2.83
2023-05-06T23:26:55.572Z,2.38
2023-05-06T23:29:21.959Z,2.22
2023-05-06T23:31:48.345Z,2.70
2023-05-06T23:34:14.679Z,2.40
2023-05-06T23:36:41.071Z,2.90
2023-05-06T23:39:07.447Z,2.65
2023-05-06T23:41:33.798Z,2.70
2023-05-06T23:44:00.183Z,2.75
2023-05-06T23:46:26.729Z,2.50
2023-05-06T23:48:53.054Z,3.20
2023-05-06T23:51:19.402Z,2.90
2023-05-06T23:53:46.383Z,2.92
2023-05-06T23:56:12.714Z,2.70
2023-05-06T23:58:39.083Z,2.50
